Time;durP1;ratioP1;P1;durP2;ratioP2;P2;SDS_P1;SDS_P2;PMS_P1;PMS_P2;Temp;Humidity;BMP_temperature;BMP_pressure;BME280_temperature;BME280_humidity;BME280_pressure;Samples;Min_cycle;Max_cycle;Signal;HPM_P1;HPM_P2
2021/05/09 00:01:21;;;;;;;6.70;3.72;;;14.70;99.90;;;;;;5052041;28;20395;-58
2021/05/09 00:04:25;;;;;;;7.90;3.75;;;14.70;99.90;;;;;;5051535;28;20056;-58
2021/05/09 00:07:29;;;;;;;13.52;4.20;;;14.70;99.90;;;;;;5050132;28;20055;-59
2021/05/09 00:10:33;;;;;;;9.27;3.20;;;14.60;99.90;;;;;;5051068;28;20419;-58
2021/05/09 00:13:38;;;;;;;12.57;4.00;;;14.60;99.90;;;;;;5045873;28;20053;-58
2021/05/09 00:16:43;;;;;;;10.90;3.75;;;14.50;99.90;;;;;;5051293;28;20044;-60
2021/05/09 00:19:47;;;;;;;15.13;5.20;;;14.40;99.90;;;;;;5051348;28;20506;-58
2021/05/09 00:22:52;;;;;;;9.27;3.53;;;14.30;99.90;;;;;;5051403;28;20035;-58
2021/05/09 00:25:56;;;;;;;10.68;4.03;;;14.10;99.90;;;;;;5051380;28;20059;-57
2021/05/09 00:29:01;;;;;;;12.73;4.65;;;13.90;99.90;;;;;;5051419;28;20048;-60
2021/05/09 00:32:06;;;;;;;17.77;3.88;;;13.70;99.90;;;;;;5050756;28;20040;-58
2021/05/09 00:35:11;;;;;;;11.43;4.03;;;13.60;99.90;;;;;;5051425;28;20040;-56
2021/05/09 00:38:15;;;;;;;9.93;4.10;;;13.60;99.90;;;;;;5051876;28;20044;-58
2021/05/09 00:41:19;;;;;;;11.40;3.78;;;13.50;99.90;;;;;;5050952;28;20043;-58
2021/05/09 00:44:24;;;;;;;11.75;4.50;;;13.50;99.90;;;;;;5051487;28;20399;-57
2021/05/09 00:47:48;;;;;;;10.90;3.92;;;13.50;99.90;;;;;;5051635;28;20048;-59
2021/05/09 00:50:52;;;;;;;10.52;3.72;;;13.50;99.90;;;;;;5050971;28;20056;-57
2021/05/09 00:53:59;;;;;;;17.42;4.70;;;13.60;99.90;;;;;;5050454;28;20052;-56
2021/05/09 00:57:05;;;;;;;8.38;3.83;;;13.60;99.90;;;;;;5051098;28;20032;-56
2021/05/09 01:00:12;;;;;;;6.72;3.60;;;13.60;99.90;;;;;;5049922;28;20060;-57
2021/05/09 01:03:26;;;;;;;8.02;3.55;;;13.70;99.90;;;;;;5038685;28;20036;-60
2021/05/09 01:06:32;;;;;;;9.45;3.10;;;13.60;99.90;;;;;;5051328;28;20056;-58
2021/05/09 01:09:38;;;;;;;12.85;3.67;;;13.70;99.90;;;;;;5049788;28;20040;-58
2021/05/09 01:12:43;;;;;;;6.28;3.50;;;13.70;99.90;;;;;;5049806;28;20044;-59
2021/05/09 01:15:47;;;;;;;9.70;3.78;;;13.70;99.90;;;;;;5050247;28;20040;-58
2021/05/09 01:18:51;;;;;;;10.43;3.60;;;13.60;99.90;;;;;;5050672;28;20395;-59
2021/05/09 01:21:56;;;;;;;13.73;5.05;;;13.50;99.90;;;;;;5050659;28;20048;-59
2021/05/09 01:25:00;;;;;;;7.22;3.95;;;13.30;99.90;;;;;;5049431;28;20068;-57
2021/05/09 01:28:05;;;;;;;9.10;3.60;;;13.30;99.90;;;;;;5050564;28;20052;-55
2021/05/09 01:31:10;;;;;;;8.63;3.67;;;13.30;99.90;;;;;;5049307;28;20055;-59
2021/05/09 01:34:15;;;;;;;8.13;3.63;;;13.30;99.90;;;;;;5060440;22;20059;-54
2021/05/09 01:37:19;;;;;;;11.07;4.40;;;13.30;99.90;;;;;;5070272;28;20399;-57
2021/05/09 01:40:24;;;;;;;13.00;4.05;;;13.30;99.90;;;;;;5068899;28;20043;-59
2021/05/09 01:43:37;;;;;;;21.30;5.05;;;13.40;99.90;;;;;;5069196;28;20047;-60
2021/05/09 01:46:42;;;;;;;8.75;4.00;;;13.40;99.90;;;;;;5067703;28;20056;-58
2021/05/09 01:49:48;;;;;;;12.07;5.63;;;13.40;99.90;;;;;;5060891;28;20052;-58
2021/05/09 01:52:54;;;;;;;10.15;4.35;;;13.30;99.90;;;;;;5062442;28;20031;-57
2021/05/09 01:55:58;;;;;;;11.27;4.75;;;13.30;99.90;;;;;;5069096;28;20059;-58
2021/05/09 01:59:10;;;;;;;9.50;4.28;;;13.20;99.90;;;;;;5069683;28;20043;-58
2021/05/09 02:02:20;;;;;;;13.57;4.65;;;13.10;99.90;;;;;;5069258;28;20399;-59
2021/05/09 02:05:33;;;;;;;14.00;5.15;;;13.00;99.90;;;;;;5058490;28;20048;-58
2021/05/09 02:08:38;;;;;;;17.40;5.20;;;12.90;99.90;;;;;;5049863;28;20060;-57
2021/05/09 02:11:54;;;;;;;13.80;4.45;;;12.90;99.90;;;;;;5048771;28;20618;-57
2021/05/09 02:15:11;;;;;;;10.32;4.72;;;12.90;99.90;;;;;;5048257;28;20050;-59
2021/05/09 02:18:16;;;;;;;13.55;5.20;;;12.90;99.90;;;;;;5049215;28;20298;-58
2021/05/09 02:21:24;;;;;;;11.77;4.97;;;12.90;99.90;;;;;;5049205;28;20040;-57
2021/05/09 02:24:28;;;;;;;12.68;4.70;;;12.90;99.90;;;;;;5069246;28;20051;-56
2021/05/09 02:27:33;;;;;;;12.20;4.90;;;13.00;99.90;;;;;;5068957;28;20537;-58
2021/05/09 02:30:37;;;;;;;11.68;5.15;;;12.90;99.90;;;;;;5068358;28;20051;-58
2021/05/09 02:33:43;;;;;;;12.88;4.95;;;12.90;99.90;;;;;;5048692;28;20043;-59
2021/05/09 02:36:48;;;;;;;18.55;4.97;;;12.80;99.90;;;;;;5048679;28;20155;-60
2021/05/09 02:39:53;;;;;;;10.88;4.70;;;12.80;99.90;;;;;;5048732;28;20485;-54
2021/05/09 02:42:57;;;;;;;13.00;4.65;;;12.80;99.90;;;;;;5048816;28;20399;-57
2021/05/09 02:46:01;;;;;;;10.65;4.35;;;12.80;99.90;;;;;;5048748;28;20065;-58
2021/05/09 02:49:05;;;;;;;9.52;4.70;;;12.80;99.90;;;;;;5049866;28;20048;-58
2021/05/09 02:52:10;;;;;;;12.68;4.20;;;12.80;99.90;;;;;;5049347;28;20067;-57
2021/05/09 02:55:14;;;;;;;8.85;3.80;;;12.70;99.90;;;;;;5048981;28;20407;-54
2021/05/09 02:58:20;;;;;;;9.98;4.15;;;12.80;99.90;;;;;;5052101;28;20040;-59
2021/05/09 03:01:25;;;;;;;12.73;4.53;;;12.80;99.90;;;;;;5052218;28;20044;-59
2021/05/09 03:04:29;;;;;;;11.40;4.68;;;12.80;99.90;;;;;;5053323;28;20513;-56
2021/05/09 03:07:34;;;;;;;11.98;4.10;;;12.80;99.90;;;;;;5052674;28;20539;-59
2021/05/09 03:10:39;;;;;;;11.52;4.97;;;12.60;99.90;;;;;;5068290;28;20051;-57
2021/05/09 03:13:44;;;;;;;13.30;4.55;;;12.60;99.90;;;;;;5073306;28;20047;-58
2021/05/09 03:16:48;;;;;;;14.20;4.72;;;12.50;99.90;;;;;;5073975;28;20036;-57
2021/05/09 03:19:53;;;;;;;9.18;4.57;;;12.40;99.90;;;;;;5073757;28;20039;-58
2021/05/09 03:22:57;;;;;;;11.50;4.57;;;12.40;99.90;;;;;;5073271;28;20047;-58
2021/05/09 03:26:01;;;;;;;14.88;5.15;;;12.40;99.90;;;;;;5073048;28;20087;-58
2021/05/09 03:29:06;;;;;;;14.38;5.00;;;12.30;99.90;;;;;;5073427;28;20051;-58
2021/05/09 03:32:11;;;;;;;12.57;5.72;;;12.20;99.90;;;;;;5073191;28;20043;-59
2021/05/09 03:35:15;;;;;;;10.35;5.50;;;12.20;99.90;;;;;;5072784;28;20039;-59
2021/05/09 03:38:19;;;;;;;11.82;5.25;;;12.20;99.90;;;;;;5073411;28;20044;-57
2021/05/09 03:41:24;;;;;;;12.80;5.38;;;12.20;99.90;;;;;;5072465;28;20048;-58
2021/05/09 03:44:29;;;;;;;12.27;5.45;;;12.10;99.90;;;;;;5072793;28;20036;-57
2021/05/09 03:47:35;;;;;;;18.50;5.75;;;12.20;99.90;;;;;;5072837;28;20414;-60
2021/05/09 03:50:39;;;;;;;11.73;5.07;;;12.20;99.90;;;;;;5072499;28;20044;-57
2021/05/09 03:53:43;;;;;;;13.65;4.43;;;12.20;99.90;;;;;;5072112;28;20039;-56
2021/05/09 03:56:47;;;;;;;13.75;4.50;;;12.20;99.90;;;;;;5072224;28;20044;-56
2021/05/09 03:59:54;;;;;;;9.95;4.70;;;12.20;99.90;;;;;;5072421;28;20071;-57
2021/05/09 04:02:58;;;;;;;8.85;4.07;;;12.20;99.90;;;;;;5072274;28;20069;-55
2021/05/09 04:06:02;;;;;;;8.77;4.57;;;12.10;99.90;;;;;;5072073;28;20047;-59
2021/05/09 04:09:08;;;;;;;11.27;4.78;;;12.10;99.90;;;;;;5072037;28;20043;-58
2021/05/09 04:12:12;;;;;;;9.55;4.78;;;12.10;99.90;;;;;;5071625;28;20047;-58
2021/05/09 04:15:17;;;;;;;13.02;5.25;;;12.00;99.90;;;;;;5071783;28;20047;-59
2021/05/09 04:18:21;;;;;;;14.80;5.28;;;12.00;99.90;;;;;;5071293;28;20051;-59
2021/05/09 04:21:25;;;;;;;17.38;5.15;;;12.00;99.90;;;;;;5071546;28;20044;-56
2021/05/09 04:24:29;;;;;;;15.13;5.22;;;12.00;99.90;;;;;;5071393;28;20047;-56
2021/05/09 04:27:34;;;;;;;13.05;5.05;;;12.10;99.90;;;;;;5072013;28;20052;-58
2021/05/09 04:30:38;;;;;;;13.15;4.80;;;12.10;99.90;;;;;;5071396;28;20055;-54
2021/05/09 04:33:42;;;;;;;12.27;4.70;;;12.10;99.90;;;;;;5051385;28;20076;-60
2021/05/09 04:36:47;;;;;;;10.43;5.00;;;12.20;99.90;;;;;;5051694;28;20044;-59
2021/05/09 04:39:51;;;;;;;14.95;5.13;;;12.20;99.90;;;;;;5051687;28;20043;-57
2021/05/09 04:43:03;;;;;;;11.02;4.90;;;12.30;99.90;;;;;;5051199;28;20407;-55
2021/05/09 04:46:08;;;;;;;12.48;5.00;;;12.40;99.90;;;;;;5051146;28;20040;-55
2021/05/09 04:49:12;;;;;;;13.15;5.25;;;12.40;99.90;;;;;;5051633;28;20044;-57
2021/05/09 04:52:15;;;;;;;13.80;4.80;;;12.90;99.90;;;;;;5044022;28;20044;-57
2021/05/09 04:55:20;;;;;;;12.32;4.50;;;15.10;99.90;;;;;;5045884;28;20529;-55
2021/05/09 04:58:26;;;;;;;12.50;4.43;;;17.70;99.90;;;;;;5045769;28;20044;-58
2021/05/09 05:01:30;;;;;;;10.43;4.40;;;19.70;99.90;;;;;;5049614;28;20044;-54
2021/05/09 05:04:35;;;;;;;11.32;4.47;;;21.30;99.90;;;;;;5051206;28;20055;-56
2021/05/09 05:07:40;;;;;;;11.77;3.58;;;22.60;99.90;;;;;;5051818;28;21060;-59
2021/05/09 05:10:44;;;;;;;13.90;4.28;;;23.60;99.90;;;;;;5050367;28;20395;-58
2021/05/09 05:13:49;;;;;;;10.60;4.03;;;24.20;99.90;;;;;;5043910;28;20057;-60
2021/05/09 05:16:53;;;;;;;11.63;3.30;;;24.30;99.90;;;;;;5044241;28;20048;-56
2021/05/09 05:19:58;;;;;;;10.07;3.65;;;21.60;99.90;;;;;;5052014;28;20056;-55
2021/05/09 05:23:02;;;;;;;8.07;3.67;;;20.20;99.90;;;;;;5045480;28;20036;-56
2021/05/09 05:26:07;;;;;;;9.07;3.70;;;21.20;99.90;;;;;;5047161;28;20419;-60
2021/05/09 05:29:11;;;;;;;9.75;4.43;;;22.90;99.90;;;;;;5044899;28;20040;-60
2021/05/09 05:32:16;;;;;;;10.52;4.25;;;24.10;99.90;;;;;;5044339;28;20518;-55
2021/05/09 05:35:20;;;;;;;11.15;4.40;;;24.30;99.90;;;;;;5052533;28;20065;-59
2021/05/09 05:38:24;;;;;;;9.43;3.60;;;24.80;99.90;;;;;;5051368;28;20056;-55
2021/05/09 05:41:29;;;;;;;5.97;3.15;;;24.60;99.90;;;;;;5050706;28;20044;-59
2021/05/09 05:44:33;;;;;;;9.45;3.70;;;24.90;99.90;;;;;;5045453;28;20056;-59
2021/05/09 05:47:37;;;;;;;7.65;3.30;;;25.40;99.90;;;;;;5046975;28;20411;-59
2021/05/09 05:50:41;;;;;;;10.55;3.53;;;25.80;99.80;;;;;;5048934;28;20052;-59
2021/05/09 05:53:45;;;;;;;9.20;4.05;;;26.00;99.80;;;;;;5047804;28;20047;-58
2021/05/09 05:56:49;;;;;;;8.95;3.85;;;26.30;98.20;;;;;;5046190;28;20047;-58
2021/05/09 05:59:53;;;;;;;8.65;3.40;;;25.60;98.40;;;;;;5046925;28;20055;-58
2021/05/09 06:02:58;;;;;;;10.85;3.47;;;22.60;99.90;;;;;;5044246;28;20651;-58
2021/05/09 06:06:02;;;;;;;12.23;3.88;;;22.60;99.90;;;;;;5046817;28;20821;-58
2021/05/09 06:09:06;;;;;;;8.90;4.00;;;20.90;99.90;;;;;;5046269;28;20040;-56
2021/05/09 06:12:10;;;;;;;7.90;3.63;;;19.20;99.90;;;;;;5050053;28;20075;-55
2021/05/09 06:15:16;;;;;;;10.57;3.67;;;19.80;99.90;;;;;;5046301;28;20035;-60
2021/05/09 06:18:20;;;;;;;6.57;3.13;;;19.80;99.90;;;;;;5046319;28;20064;-59
2021/05/09 06:21:26;;;;;;;10.80;4.13;;;20.80;99.90;;;;;;5053136;28;20557;-57
2021/05/09 06:24:30;;;;;;;8.85;3.60;;;21.90;99.90;;;;;;5067296;28;20063;-57
2021/05/09 06:27:35;;;;;;;7.20;3.20;;;21.90;99.90;;;;;;5053800;28;20044;-57
2021/05/09 06:30:39;;;;;;;6.88;3.38;;;21.20;99.90;;;;;;5051935;28;20040;-56
2021/05/09 06:33:43;;;;;;;7.78;3.20;;;22.40;99.90;;;;;;5053024;28;20051;-58
2021/05/09 06:36:48;;;;;;;8.20;3.83;;;22.50;99.90;;;;;;5057386;28;20043;-56
2021/05/09 06:39:52;;;;;;;9.23;3.85;;;22.20;99.90;;;;;;5058706;28;20039;-55
2021/05/09 06:42:58;;;;;;;10.20;3.72;;;22.20;99.90;;;;;;5063863;28;20059;-55
2021/05/09 06:46:03;;;;;;;8.20;4.00;;;23.40;99.90;;;;;;5067773;28;20040;-55
2021/05/09 06:49:07;;;;;;;7.70;3.75;;;24.20;99.90;;;;;;5063623;28;20039;-58
2021/05/09 06:52:12;;;;;;;6.82;3.50;;;24.40;99.90;;;;;;5068567;28;20056;-55
2021/05/09 06:55:19;;;;;;;9.07;4.97;;;25.10;99.40;;;;;;5068512;28;20048;-54
2021/05/09 06:58:23;;;;;;;6.40;2.83;;;25.10;99.00;;;;;;5068429;28;20044;-55
2021/05/09 07:01:27;;;;;;;5.78;2.92;;;25.50;98.10;;;;;;5058537;28;20051;-59
2021/05/09 07:04:31;;;;;;;7.47;3.47;;;26.10;97.00;;;;;;5068743;28;20539;-58
2021/05/09 07:07:51;;;;;;;7.25;2.80;;;24.00;98.00;;;;;;5069366;28;20039;-56
2021/05/09 07:10:56;;;;;;;6.95;3.38;;;24.80;98.60;;;;;;5068256;28;20036;-55
2021/05/09 07:13:59;;;;;;;8.82;3.72;;;23.20;99.90;;;;;;5058501;28;20036;-57
2021/05/09 07:17:03;;;;;;;8.57;3.03;;;24.10;99.10;;;;;;5062265;28;20051;-57
2021/05/09 07:20:08;;;;;;;10.20;3.15;;;23.00;99.90;;;;;;5068599;28;20517;-56
2021/05/09 07:23:15;;;;;;;9.27;2.85;;;22.90;99.90;;;;;;5067213;28;20414;-58
2021/05/09 07:26:20;;;;;;;7.30;2.90;;;23.80;99.60;;;;;;5058504;28;20513;-55
2021/05/09 07:29:24;;;;;;;7.60;2.80;;;23.90;99.70;;;;;;5068999;28;20072;-54
2021/05/09 07:32:27;;;;;;;5.78;2.50;;;26.50;97.00;;;;;;5065411;28;20048;-56
2021/05/09 07:35:31;;;;;;;6.45;2.97;;;27.40;96.50;;;;;;5066818;28;20048;-55
2021/05/09 07:38:35;;;;;;;5.78;2.50;;;26.20;95.60;;;;;;5068967;28;20521;-55
2021/05/09 07:41:40;;;;;;;6.65;2.78;;;26.80;96.10;;;;;;5069849;28;20051;-55
2021/05/09 07:44:44;;;;;;;8.15;3.22;;;25.70;96.30;;;;;;5071017;28;20047;-54
2021/05/09 07:47:48;;;;;;;9.55;2.78;;;27.50;96.30;;;;;;5072819;28;20047;-56
2021/05/09 07:50:53;;;;;;;7.70;2.63;;;28.10;94.50;;;;;;5072069;28;20510;-54
2021/05/09 07:53:57;;;;;;;9.27;3.30;;;28.60;94.60;;;;;;5072428;28;20040;-57
2021/05/09 07:57:01;;;;;;;5.63;3.00;;;26.70;95.20;;;;;;5072516;28;20066;-56
2021/05/09 08:00:14;;;;;;;8.25;3.13;;;28.50;94.30;;;;;;5072129;28;20068;-56
2021/05/09 08:03:20;;;;;;;12.93;3.90;;;28.00;93.20;;;;;;5064136;28;20069;-57
2021/05/09 08:06:25;;;;;;;6.25;3.40;;;29.70;92.60;;;;;;5045191;28;20055;-58
2021/05/09 08:09:28;;;;;;;8.90;3.90;;;31.50;91.70;;;;;;5053061;28;20048;-56
2021/05/09 08:12:32;;;;;;;7.93;3.90;;;32.50;89.90;;;;;;5054313;28;20418;-55
2021/05/09 08:15:38;;;;;;;6.32;4.30;;;32.40;88.80;;;;;;5051221;28;20048;-55
2021/05/09 08:18:42;;;;;;;9.35;4.72;;;31.60;87.60;;;;;;5054186;28;20040;-55
2021/05/09 08:21:48;;;;;;;8.85;4.90;;;29.30;91.10;;;;;;5055782;28;20410;-54
2021/05/09 08:24:52;;;;;;;8.02;5.20;;;27.70;91.50;;;;;;5070878;28;20058;-55
2021/05/09 08:27:58;;;;;;;10.60;5.10;;;26.50;93.90;;;;;;5071817;28;20043;-54
2021/05/09 08:31:02;;;;;;;11.18;4.78;;;28.70;92.20;;;;;;5071128;28;20068;-54
2021/05/09 08:34:07;;;;;;;12.07;4.78;;;28.20;92.50;;;;;;5051103;28;20399;-56
2021/05/09 08:37:11;;;;;;;6.22;4.57;;;27.00;93.80;;;;;;5060678;28;20051;-55
2021/05/09 08:40:17;;;;;;;8.32;4.45;;;28.20;93.90;;;;;;5053225;28;20055;-57
2021/05/09 08:43:22;;;;;;;9.85;4.78;;;29.00;92.20;;;;;;5071152;28;20052;-55
2021/05/09 08:46:26;;;;;;;8.60;3.83;;;29.10;92.60;;;;;;5055200;28;20044;-58
2021/05/09 08:49:32;;;;;;;7.90;3.97;;;27.90;93.00;;;;;;5050187;28;20040;-54
2021/05/09 08:52:37;;;;;;;7.30;3.30;;;28.70;92.10;;;;;;5051484;28;20056;-54
2021/05/09 08:55:42;;;;;;;9.30;3.00;;;30.80;91.00;;;;;;5052462;28;20060;-55
2021/05/09 08:58:46;;;;;;;4.45;2.40;;;30.20;90.70;;;;;;5061226;28;20032;-56
2021/05/09 09:01:50;;;;;;;5.55;2.60;;;30.20;90.00;;;;;;5071618;28;20055;-54
2021/05/09 09:04:56;;;;;;;6.72;2.92;;;27.80;91.20;;;;;;5071589;28;20072;-54
2021/05/09 09:08:00;;;;;;;5.88;2.60;;;27.30;93.10;;;;;;5050907;28;20044;-55
2021/05/09 09:11:08;;;;;;;6.03;2.53;;;29.60;91.50;;;;;;5069427;28;20047;-55
2021/05/09 09:14:13;;;;;;;7.25;2.50;;;30.20;90.10;;;;;;5069211;28;20055;-55
2021/05/09 09:17:18;;;;;;;7.05;2.47;;;30.30;90.70;;;;;;5050330;28;20514;-56
2021/05/09 09:20:22;;;;;;;4.88;1.73;;;27.50;92.30;;;;;;5050256;28;20514;-57
2021/05/09 09:23:45;;;;;;;5.75;2.20;;;29.80;90.00;;;;;;5050894;28;20530;-56
2021/05/09 09:26:52;;;;;;;12.40;2.30;;;27.30;90.90;;;;;;5044817;28;20131;-58
2021/05/09 09:30:05;;;;;;;7.68;2.40;;;29.20;91.60;;;;;;5060049;28;20043;-56
2021/05/09 09:33:14;;;;;;;6.65;2.25;;;29.00;90.20;;;;;;5062428;28;20043;-54
2021/05/09 09:36:19;;;;;;;5.65;2.40;;;28.10;90.50;;;;;;5060916;28;20410;-57
2021/05/09 09:40:02;;;;;;;4.88;2.03;;;27.10;91.00;;;;;;5067122;28;20115;-57
2021/05/09 09:43:17;;;;;;;6.38;1.80;;;28.00;91.50;;;;;;5056374;28;20423;-57
2021/05/09 09:46:32;;;;;;;11.85;1.85;;;30.10;90.30;;;;;;5055674;28;20044;-56
2021/05/09 09:49:38;;;;;;;8.20;1.77;;;27.00;91.10;;;;;;5055844;28;20060;-56
2021/05/09 09:52:43;;;;;;;3.42;1.70;;;29.60;89.90;;;;;;5058413;28;20047;-56
2021/05/09 09:56:25;;;;;;;4.20;1.73;;;31.00;87.10;;;;;;5061635;28;20047;-57
2021/05/09 09:59:30;;;;;;;6.43;1.73;;;27.30;89.80;;;;;;5055857;28;20040;-56
2021/05/09 10:02:35;;;;;;;5.22;1.75;;;28.00;89.20;;;;;;5053658;28;20044;-55
2021/05/09 10:05:38;;;;;;;6.53;1.83;;;27.60;88.90;;;;;;5054516;28;20036;-54
2021/05/09 10:08:43;;;;;;;5.93;2.00;;;27.80;89.00;;;;;;5055614;28;20047;-55
2021/05/09 10:11:47;;;;;;;4.53;1.73;;;28.20;88.10;;;;;;5049434;28;20056;-59
2021/05/09 10:14:52;;;;;;;6.60;1.92;;;30.40;88.60;;;;;;5051720;28;20053;-57
2021/05/09 10:17:58;;;;;;;8.75;2.05;;;30.20;85.70;;;;;;5060348;28;20051;-55
2021/05/09 10:21:02;;;;;;;3.85;1.60;;;31.40;86.00;;;;;;5068254;28;20032;-56
2021/05/09 10:24:23;;;;;;;4.28;1.50;;;33.90;80.80;;;;;;5058654;28;20040;-59
2021/05/09 10:27:34;;;;;;;;;;;35.40;81.40;;;;;;5063384;28;20533;-59
2021/05/09 10:30:59;;;;;;;6.68;1.80;;;32.60;77.50;;;;;;5058855;28;19915;-54
2021/05/09 10:34:04;;;;;;;4.07;1.48;;;30.30;81.00;;;;;;5063359;28;20405;-58
2021/05/09 10:37:08;;;;;;;4.60;1.45;;;30.70;84.20;;;;;;5064494;28;20052;-58
2021/05/09 10:40:26;;;;;;;3.78;1.60;;;32.00;80.80;;;;;;5065525;28;20043;-59
2021/05/09 10:43:31;;;;;;;5.60;1.55;;;31.90;79.40;;;;;;5065005;28;20044;-55
2021/05/09 10:47:00;;;;;;;4.78;1.40;;;30.50;80.90;;;;;;5068171;28;20048;-60
2021/05/09 10:50:27;;;;;;;3.53;1.60;;;30.70;77.70;;;;;;5050330;28;20064;-60
2021/05/09 10:53:34;;;;;;;2.53;1.27;;;28.50;79.50;;;;;;5051978;28;20051;-58
2021/05/09 10:56:38;;;;;;;4.65;1.67;;;29.40;79.80;;;;;;5050221;28;20044;-58
2021/05/09 11:00:01;;;;;;;5.47;1.58;;;32.60;76.60;;;;;;5053547;28;20043;-57
2021/05/09 11:03:40;;;;;;;3.13;1.30;;;31.10;75.30;;;;;;5064759;28;20052;-57
2021/05/09 11:06:50;;;;;;;3.67;1.73;;;30.90;77.20;;;;;;5060290;28;20123;-54
2021/05/09 11:09:54;;;;;;;3.83;1.50;;;29.00;80.50;;;;;;5054412;28;21299;-57
2021/05/09 11:13:04;;;;;;;3.53;1.42;;;32.00;76.20;;;;;;5052973;28;20040;-55
2021/05/09 11:16:18;;;;;;;7.97;1.65;;;31.00;77.70;;;;;;5061036;28;20043;-58
2021/05/09 11:19:26;;;;;;;5.03;1.85;;;30.60;78.50;;;;;;5070175;28;20043;-57
2021/05/09 11:22:30;;;;;;;4.88;1.40;;;32.20;76.70;;;;;;5071820;28;20039;-55
2021/05/09 11:25:34;;;;;;;5.15;1.42;;;34.40;75.10;;;;;;5071453;28;20043;-61
2021/05/09 11:28:37;;;;;;;4.90;1.80;;;33.90;73.80;;;;;;5055025;28;20048;-59
2021/05/09 11:31:49;;;;;;;4.22;1.73;;;34.20;74.00;;;;;;5054670;28;20044;-57
2021/05/09 11:34:59;;;;;;;3.67;1.70;;;30.60;75.80;;;;;;5056643;28;20040;-54
2021/05/09 11:38:04;;;;;;;4.25;1.40;;;31.90;76.60;;;;;;5072550;28;20048;-56
2021/05/09 11:41:08;;;;;;;4.18;1.70;;;34.70;72.60;;;;;;5072386;28;20041;-60
2021/05/09 11:44:12;;;;;;;5.43;1.85;;;33.40;72.30;;;;;;5060761;28;20474;-56
2021/05/09 11:47:23;;;;;;;5.00;1.60;;;31.10;75.10;;;;;;5072649;28;20119;-56
2021/05/09 11:50:27;;;;;;;3.63;1.55;;;32.20;77.20;;;;;;5071954;28;20059;-54
2021/05/09 11:53:32;;;;;;;9.80;1.80;;;32.90;72.80;;;;;;5071662;28;20513;-59
2021/05/09 11:56:57;;;;;;;9.15;2.13;;;34.20;74.40;;;;;;5071854;28;20043;-58
2021/05/09 12:00:07;;;;;;;7.78;2.20;;;32.40;74.60;;;;;;5059433;28;20036;-54
2021/05/09 12:03:22;;;;;;;17.97;2.53;;;30.90;75.00;;;;;;5057180;28;20051;-58
2021/05/09 12:06:28;;;;;;;5.60;2.15;;;30.70;76.10;;;;;;5060679;28;20278;-59
2021/05/09 12:09:33;;;;;;;2.47;1.55;;;29.50;77.40;;;;;;5071498;28;20051;-59
2021/05/09 12:12:39;;;;;;;5.32;1.73;;;31.00;77.20;;;;;;5071670;28;20537;-55
2021/05/09 12:15:44;;;;;;;3.42;1.33;;;30.40;79.20;;;;;;5071466;28;20328;-55
2021/05/09 12:18:48;;;;;;;3.25;1.30;;;32.00;75.80;;;;;;5071430;28;20414;-54
2021/05/09 12:22:00;;;;;;;6.32;1.90;;;32.40;74.00;;;;;;5060124;28;20043;-58
2021/05/09 12:25:05;;;;;;;6.32;1.70;;;31.80;73.70;;;;;;5062143;28;20047;-59
2021/05/09 12:28:26;;;;;;;3.55;1.42;;;30.30;76.40;;;;;;5055084;28;20044;-58
2021/05/09 12:31:30;;;;;;;7.88;1.67;;;30.90;75.90;;;;;;5065981;28;20123;-59
2021/05/09 12:34:34;;;;;;;6.03;2.00;;;30.70;74.80;;;;;;5059261;28;20048;-61
2021/05/09 12:37:41;;;;;;;3.40;1.70;;;30.40;75.30;;;;;;5069525;28;20051;-61
2021/05/09 12:40:45;;;;;;;4.43;1.58;;;30.30;75.80;;;;;;5049432;28;20044;-56
2021/05/09 12:43:55;;;;;;;8.10;2.20;;;29.60;77.40;;;;;;5051110;28;20040;-60
2021/05/09 12:46:59;;;;;;;4.25;1.67;;;29.40;78.90;;;;;;5065302;28;20043;-56
2021/05/09 12:50:03;;;;;;;6.50;2.20;;;27.80;78.80;;;;;;5050192;28;20581;-55
2021/05/09 12:53:07;;;;;;;6.70;1.98;;;28.30;82.70;;;;;;5061239;28;20055;-59
2021/05/09 12:56:24;;;;;;;6.57;1.83;;;28.00;80.70;;;;;;5049472;28;20418;-57
2021/05/09 12:59:28;;;;;;;4.20;1.50;;;29.00;78.60;;;;;;5060126;28;20048;-54
2021/05/09 13:02:49;;;;;;;5.95;1.50;;;29.60;78.30;;;;;;5024739;28;20052;-57
2021/05/09 13:05:54;;;;;;;;;;;29.50;78.70;;;;;;5048315;28;20510;-56
2021/05/09 13:08:58;;;;;;;4.82;1.70;;;28.90;80.20;;;;;;5038945;28;19920;-59
2021/05/09 13:12:04;;;;;;;4.47;1.65;;;28.50;79.70;;;;;;5044420;28;20410;-58
2021/05/09 13:15:14;;;;;;;6.05;1.70;;;28.30;76.40;;;;;;5042818;28;20617;-56
2021/05/09 13:18:19;;;;;;;7.33;1.90;;;28.10;78.50;;;;;;5050308;28;20044;-60
2021/05/09 13:21:23;;;;;;;3.45;1.48;;;28.80;76.80;;;;;;5048837;28;20055;-59
2021/05/09 13:24:27;;;;;;;3.25;1.42;;;29.70;76.30;;;;;;5026634;28;20044;-56
2021/05/09 13:27:32;;;;;;;4.20;2.30;;;28.30;76.20;;;;;;5041781;28;20051;-58
2021/05/09 13:30:36;;;;;;;5.88;2.35;;;27.20;76.90;;;;;;5038742;28;20059;-54
2021/05/09 13:33:40;;;;;;;6.80;1.95;;;26.90;76.00;;;;;;5022840;28;20059;-60
2021/05/09 13:36:45;;;;;;;3.95;1.70;;;26.70;78.40;;;;;;5041156;28;20048;-61
2021/05/09 13:39:49;;;;;;;5.85;1.48;;;27.60;76.40;;;;;;5046637;28;20048;-58
2021/05/09 13:42:54;;;;;;;4.90;1.70;;;28.60;73.90;;;;;;5026983;28;20653;-59
2021/05/09 13:46:02;;;;;;;5.97;1.67;;;29.50;73.30;;;;;;5034497;28;20639;-59
2021/05/09 13:49:06;;;;;;;4.38;1.40;;;29.30;72.60;;;;;;5041701;28;20060;-58
2021/05/09 13:52:12;;;;;;;4.47;1.65;;;29.60;73.50;;;;;;5035779;28;20040;-58
2021/05/09 13:55:16;;;;;;;3.20;1.20;;;29.50;72.70;;;;;;5037956;28;20036;-59
2021/05/09 13:58:21;;;;;;;5.43;1.65;;;29.80;72.00;;;;;;5037194;28;20060;-59
2021/05/09 14:01:25;;;;;;;3.55;1.50;;;28.50;74.80;;;;;;5035133;28;20051;-55
2021/05/09 14:04:31;;;;;;;5.75;1.60;;;26.90;73.70;;;;;;5033116;28;20046;-58
2021/05/09 14:07:35;;;;;;;4.70;1.40;;;27.70;74.90;;;;;;5034490;28;20438;-57
2021/05/09 14:10:39;;;;;;;3.97;1.58;;;28.30;76.50;;;;;;5038124;28;20060;-57
2021/05/09 14:13:44;;;;;;;6.75;1.92;;;27.70;74.00;;;;;;5029126;28;20604;-58
2021/05/09 14:16:49;;;;;;;4.35;1.63;;;27.60;74.00;;;;;;5042337;28;20048;-57
2021/05/09 14:19:54;;;;;;;3.72;1.17;;;28.60;75.50;;;;;;5044007;28;20411;-57
2021/05/09 14:23:00;;;;;;;2.60;1.35;;;28.30;74.20;;;;;;5028849;28;20043;-59
2021/05/09 14:26:05;;;;;;;5.43;1.30;;;27.00;75.90;;;;;;5037368;28;20056;-58
2021/05/09 14:29:09;;;;;;;5.22;1.60;;;27.40;75.80;;;;;;5039556;28;20055;-58
2021/05/09 14:32:13;;;;;;;3.08;1.40;;;27.00;75.30;;;;;;5033022;28;20059;-57
2021/05/09 14:35:17;;;;;;;5.88;1.85;;;26.90;78.90;;;;;;5036735;28;20403;-57
2021/05/09 14:38:21;;;;;;;3.72;1.42;;;26.70;81.40;;;;;;5041830;28;20075;-57
2021/05/09 14:41:26;;;;;;;6.07;1.75;;;27.30;77.00;;;;;;5047658;28;20123;-59
2021/05/09 14:44:30;;;;;;;4.38;1.80;;;27.40;78.80;;;;;;5031614;28;20044;-57
2021/05/09 14:47:34;;;;;;;6.07;1.20;;;27.10;75.60;;;;;;5043856;28;20097;-54
2021/05/09 14:50:38;;;;;;;3.60;1.30;;;26.50;77.50;;;;;;5040615;28;20056;-54
2021/05/09 14:53:42;;;;;;;4.57;2.05;;;26.20;77.50;;;;;;5014195;28;20043;-60
2021/05/09 14:56:47;;;;;;;5.10;1.52;;;26.40;79.50;;;;;;5037116;28;20044;-59
2021/05/09 14:59:52;;;;;;;7.15;1.60;;;27.10;77.30;;;;;;5037443;28;20047;-58
2021/05/09 15:02:56;;;;;;;5.90;1.63;;;27.30;78.70;;;;;;5025917;28;20052;-61
2021/05/09 15:06:00;;;;;;;5.78;1.48;;;28.00;77.80;;;;;;5044112;28;20043;-57
2021/05/09 15:09:05;;;;;;;5.30;1.30;;;28.10;76.50;;;;;;5042749;28;20048;-56
2021/05/09 15:12:10;;;;;;;5.40;1.73;;;28.40;77.40;;;;;;5037526;28;20044;-55
2021/05/09 15:15:15;;;;;;;6.90;1.73;;;27.60;77.80;;;;;;5034610;28;20048;-59
2021/05/09 15:18:19;;;;;;;4.47;1.40;;;27.80;76.80;;;;;;5049227;28;20047;-59
2021/05/09 15:21:23;;;;;;;11.23;1.65;;;28.10;75.20;;;;;;5075887;22;20048;-56
2021/05/09 15:24:28;;;;;;;2.65;1.20;;;27.50;76.20;;;;;;4996813;28;20057;-54
2021/05/09 15:27:33;;;;;;;4.15;1.15;;;27.50;76.00;;;;;;4998824;28;20037;-55
2021/05/09 15:30:37;;;;;;;4.35;1.38;;;27.10;74.90;;;;;;5007554;28;20400;-56
2021/05/09 15:33:42;;;;;;;14.68;3.65;;;26.20;74.60;;;;;;4994999;28;20037;-53
2021/05/09 15:36:46;;;;;;;24.17;3.45;;;26.60;74.80;;;;;;4995512;28;20061;-56
2021/05/09 15:39:50;;;;;;;9.25;1.67;;;26.80;77.30;;;;;;4984617;28;20029;-54
2021/05/09 15:42:55;;;;;;;66.40;8.32;;;26.50;77.70;;;;;;5006576;28;20059;-55
2021/05/09 15:46:00;;;;;;;13.30;2.50;;;26.40;75.00;;;;;;4958541;28;20049;-54
2021/05/09 15:49:04;;;;;;;7.40;1.70;;;26.40;76.40;;;;;;4959541;28;20521;-52
2021/05/09 15:52:09;;;;;;;6.30;1.63;;;26.70;77.90;;;;;;4960770;28;20040;-54
2021/05/09 15:55:14;;;;;;;11.55;3.00;;;26.10;76.00;;;;;;4953992;28;20123;-56
2021/05/09 15:58:18;;;;;;;7.78;1.25;;;26.10;76.60;;;;;;4955295;28;20045;-51
2021/05/09 16:01:22;;;;;;;8.75;1.50;;;26.10;76.90;;;;;;4961765;28;20061;-54
2021/05/09 16:04:26;;;;;;;3.42;1.15;;;26.00;77.00;;;;;;4959465;28;21424;-55